RORY(METAR)
02/20 20:00
METAR RORY 201100Z AUTO 09004KT 9999 OVC016 21/18 Q1021 RMK A3015=
戻る
トップページへ戻る
IMOC Co,.Ltd.